sensor_id;sensor_type;location;lat;lon;timestamp;temperature;humidity
52899;DHT22;38763;53.096;6.062;2022-12-18T00:01:26;-3.00;99.90
52899;DHT22;38763;53.096;6.062;2022-12-18T00:03:53;-3.00;99.90
52899;DHT22;38763;53.096;6.062;2022-12-18T00:06:20;-3.00;99.90
52899;DHT22;38763;53.096;6.062;2022-12-18T00:08:46;-3.00;99.90
52899;DHT22;38763;53.096;6.062;2022-12-18T00:11:14;-3.10;99.90
52899;DHT22;38763;53.096;6.062;2022-12-18T00:13:41;-3.10;99.90
52899;DHT22;38763;53.096;6.062;2022-12-18T00:16:15;-3.20;99.90
52899;DHT22;38763;53.096;6.062;2022-12-18T00:18:41;-3.10;99.90
52899;DHT22;38763;53.096;6.062;2022-12-18T00:21:10;-3.20;99.90
52899;DHT22;38763;53.096;6.062;2022-12-18T00:23:37;-3.20;99.90
52899;DHT22;38763;53.096;6.062;2022-12-18T00:26:09;-3.30;99.90
52899;DHT22;38763;53.096;6.062;2022-12-18T00:28:35;-3.20;99.90
52899;DHT22;38763;53.096;6.062;2022-12-18T00:31:05;-3.30;99.90
52899;DHT22;38763;53.096;6.062;2022-12-18T00:33:31;-3.40;99.90
52899;DHT22;38763;53.096;6.062;2022-12-18T00:36:15;-3.30;99.90
52899;DHT22;38763;53.096;6.062;2022-12-18T00:38:41;-3.30;99.90
52899;DHT22;38763;53.096;6.062;2022-12-18T00:41:08;-3.30;99.90
52899;DHT22;38763;53.096;6.062;2022-12-18T00:43:35;-3.30;99.90
52899;DHT22;38763;53.096;6.062;2022-12-18T00:46:01;-3.30;99.90
52899;DHT22;38763;53.096;6.062;2022-12-18T00:48:26;-3.30;99.90
52899;DHT22;38763;53.096;6.062;2022-12-18T00:50:52;-3.30;99.90
52899;DHT22;38763;53.096;6.062;2022-12-18T00:53:18;-3.30;99.90
52899;DHT22;38763;53.096;6.062;2022-12-18T00:55:45;-3.40;99.90
52899;DHT22;38763;53.096;6.062;2022-12-18T00:58:12;-3.30;99.90
52899;DHT22;38763;53.096;6.062;2022-12-18T01:00:37;-3.30;99.90
52899;DHT22;38763;53.096;6.062;2022-12-18T01:03:04;-3.40;99.90
52899;DHT22;38763;53.096;6.062;2022-12-18T01:05:30;-3.40;99.90
52899;DHT22;38763;53.096;6.062;2022-12-18T01:07:56;-3.40;99.90
52899;DHT22;38763;53.096;6.062;2022-12-18T01:10:22;-3.50;99.90
52899;DHT22;38763;53.096;6.062;2022-12-18T01:12:48;-3.40;99.90
52899;DHT22;38763;53.096;6.062;2022-12-18T01:15:15;-3.40;99.90
52899;DHT22;38763;53.096;6.062;2022-12-18T01:17:41;-3.40;99.90
52899;DHT22;38763;53.096;6.062;2022-12-18T01:20:07;-3.40;99.90
52899;DHT22;38763;53.096;6.062;2022-12-18T01:22:34;-3.40;99.90
52899;DHT22;38763;53.096;6.062;2022-12-18T01:25:00;-3.50;99.90
52899;DHT22;38763;53.096;6.062;2022-12-18T01:27:26;-3.40;99.90
52899;DHT22;38763;53.096;6.062;2022-12-18T01:29:51;-3.50;99.90
52899;DHT22;38763;53.096;6.062;2022-12-18T01:32:17;-3.50;99.90
52899;DHT22;38763;53.096;6.062;2022-12-18T01:34:43;-3.50;99.90
52899;DHT22;38763;53.096;6.062;2022-12-18T01:37:08;-3.60;99.90
52899;DHT22;38763;53.096;6.062;2022-12-18T01:39:34;-3.60;99.90
52899;DHT22;38763;53.096;6.062;2022-12-18T01:42:02;-3.60;99.90
52899;DHT22;38763;53.096;6.062;2022-12-18T01:47:43;-3.80;99.90
52899;DHT22;38763;53.096;6.062;2022-12-18T01:50:15;-3.80;99.90
52899;DHT22;38763;53.096;6.062;2022-12-18T01:52:44;-3.90;99.90
52899;DHT22;38763;53.096;6.062;2022-12-18T01:55:11;-3.80;99.90
52899;DHT22;38763;53.096;6.062;2022-12-18T01:57:38;-4.00;99.90
52899;DHT22;38763;53.096;6.062;2022-12-18T02:00:12;-4.00;99.90
52899;DHT22;38763;53.096;6.062;2022-12-18T02:02:40;-4.00;99.90
52899;DHT22;38763;53.096;6.062;2022-12-18T02:05:07;-4.00;99.90
52899;DHT22;38763;53.096;6.062;2022-12-18T02:10:12;-4.10;99.90
52899;DHT22;38763;53.096;6.062;2022-12-18T02:18:21;-4.20;99.90
52899;DHT22;38763;53.096;6.062;2022-12-18T02:26:18;-4.20;99.90
52899;DHT22;38763;53.096;6.062;2022-12-18T02:29:00;-4.20;99.90
52899;DHT22;38763;53.096;6.062;2022-12-18T02:31:29;-4.30;99.90
52899;DHT22;38763;53.096;6.062;2022-12-18T02:33:59;-4.30;99.90
52899;DHT22;38763;53.096;6.062;2022-12-18T02:36:27;-4.30;99.90
52899;DHT22;38763;53.096;6.062;2022-12-18T02:38:54;-4.40;99.90
52899;DHT22;38763;53.096;6.062;2022-12-18T02:41:23;-4.40;99.90
52899;DHT22;38763;53.096;6.062;2022-12-18T02:43:55;-4.50;99.90
52899;DHT22;38763;53.096;6.062;2022-12-18T02:46:28;-4.40;99.90
52899;DHT22;38763;53.096;6.062;2022-12-18T02:49:16;-4.50;99.90
52899;DHT22;38763;53.096;6.062;2022-12-18T02:51:51;-4.40;99.90
52899;DHT22;38763;53.096;6.062;2022-12-18T02:54:31;-4.40;99.90
52899;DHT22;38763;53.096;6.062;2022-12-18T02:57:09;-4.40;99.90
52899;DHT22;38763;53.096;6.062;2022-12-18T03:02:45;-4.50;99.90
52899;DHT22;38763;53.096;6.062;2022-12-18T03:05:33;-4.50;99.90
52899;DHT22;38763;53.096;6.062;2022-12-18T03:08:07;-4.60;99.90
52899;DHT22;38763;53.096;6.062;2022-12-18T03:10:40;-4.50;99.90
52899;DHT22;38763;53.096;6.062;2022-12-18T03:13:10;-4.50;99.90
52899;DHT22;38763;53.096;6.062;2022-12-18T03:15:49;-4.50;99.90
52899;DHT22;38763;53.096;6.062;2022-12-18T03:18:17;-4.50;99.90
52899;DHT22;38763;53.096;6.062;2022-12-18T03:20:46;-4.60;99.90
52899;DHT22;38763;53.096;6.062;2022-12-18T03:23:17;-4.60;99.90
52899;DHT22;38763;53.096;6.062;2022-12-18T03:25:44;-4.70;99.90
52899;DHT22;38763;53.096;6.062;2022-12-18T03:28:14;-4.70;99.90
52899;DHT22;38763;53.096;6.062;2022-12-18T03:30:43;-4.70;99.90
52899;DHT22;38763;53.096;6.062;2022-12-18T03:33:17;-4.70;99.90
52899;DHT22;38763;53.096;6.062;2022-12-18T03:35:45;-4.70;99.90
52899;DHT22;38763;53.096;6.062;2022-12-18T03:38:11;-4.70;99.90
52899;DHT22;38763;53.096;6.062;2022-12-18T03:40:50;-4.80;99.90
52899;DHT22;38763;53.096;6.062;2022-12-18T03:46:08;-4.80;99.90
52899;DHT22;38763;53.096;6.062;2022-12-18T03:48:44;-4.80;99.90
52899;DHT22;38763;53.096;6.062;2022-12-18T03:51:18;-4.80;99.90
52899;DHT22;38763;53.096;6.062;2022-12-18T03:56:20;-4.80;99.90
52899;DHT22;38763;53.096;6.062;2022-12-18T03:58:48;-4.90;99.90
52899;DHT22;38763;53.096;6.062;2022-12-18T04:01:16;-4.90;99.90
52899;DHT22;38763;53.096;6.062;2022-12-18T04:03:43;-4.80;99.90
52899;DHT22;38763;53.096;6.062;2022-12-18T04:06:10;-4.80;99.90
52899;DHT22;38763;53.096;6.062;2022-12-18T04:08:36;-4.90;99.90
52899;DHT22;38763;53.096;6.062;2022-12-18T04:11:04;-4.90;99.90
52899;DHT22;38763;53.096;6.062;2022-12-18T04:13:35;-4.90;99.90
52899;DHT22;38763;53.096;6.062;2022-12-18T04:16:01;-4.90;99.90
52899;DHT22;38763;53.096;6.062;2022-12-18T04:18:26;-4.90;99.90
52899;DHT22;38763;53.096;6.062;2022-12-18T04:20:52;-4.90;99.90
52899;DHT22;38763;53.096;6.062;2022-12-18T04:23:18;-4.90;99.90
52899;DHT22;38763;53.096;6.062;2022-12-18T04:25:44;-4.80;99.90
52899;DHT22;38763;53.096;6.062;2022-12-18T04:28:10;-4.90;99.90
52899;DHT22;38763;53.096;6.062;2022-12-18T04:30:36;-4.90;99.90
52899;DHT22;38763;53.096;6.062;2022-12-18T04:33:01;-4.90;99.90
52899;DHT22;38763;53.096;6.062;2022-12-18T04:35:27;-4.90;99.90
52899;DHT22;38763;53.096;6.062;2022-12-18T04:37:53;-4.90;99.90
52899;DHT22;38763;53.096;6.062;2022-12-18T04:40:18;-4.90;99.90
52899;DHT22;38763;53.096;6.062;2022-12-18T04:42:44;-4.90;99.90
52899;DHT22;38763;53.096;6.062;2022-12-18T04:45:10;-4.90;99.90
52899;DHT22;38763;53.096;6.062;2022-12-18T04:47:35;-5.00;99.90
52899;DHT22;38763;53.096;6.062;2022-12-18T04:50:01;-5.00;99.90
52899;DHT22;38763;53.096;6.062;2022-12-18T04:52:27;-5.00;99.90
52899;DHT22;38763;53.096;6.062;2022-12-18T04:54:52;-5.10;99.90
52899;DHT22;38763;53.096;6.062;2022-12-18T04:57:18;-5.10;99.90
52899;DHT22;38763;53.096;6.062;2022-12-18T04:59:44;-5.00;99.90
52899;DHT22;38763;53.096;6.062;2022-12-18T05:02:10;-5.10;99.90
52899;DHT22;38763;53.096;6.062;2022-12-18T05:04:35;-5.10;99.90
52899;DHT22;38763;53.096;6.062;2022-12-18T05:07:01;-5.20;99.90
52899;DHT22;38763;53.096;6.062;2022-12-18T05:09:27;-5.20;99.90
52899;DHT22;38763;53.096;6.062;2022-12-18T05:11:52;-5.10;99.90
52899;DHT22;38763;53.096;6.062;2022-12-18T05:14:19;-5.20;99.90
52899;DHT22;38763;53.096;6.062;2022-12-18T05:16:44;-5.20;99.90
52899;DHT22;38763;53.096;6.062;2022-12-18T05:19:10;-5.20;99.90
52899;DHT22;38763;53.096;6.062;2022-12-18T05:21:36;-5.20;99.90
52899;DHT22;38763;53.096;6.062;2022-12-18T05:24:01;-5.30;99.90
52899;DHT22;38763;53.096;6.062;2022-12-18T05:26:27;-5.30;99.90
52899;DHT22;38763;53.096;6.062;2022-12-18T05:28:52;-5.40;99.90
52899;DHT22;38763;53.096;6.062;2022-12-18T05:31:18;-5.30;99.90
52899;DHT22;38763;53.096;6.062;2022-12-18T05:33:44;-5.40;99.90
52899;DHT22;38763;53.096;6.062;2022-12-18T05:36:09;-5.40;99.90
52899;DHT22;38763;53.096;6.062;2022-12-18T05:38:37;-5.30;99.90
52899;DHT22;38763;53.096;6.062;2022-12-18T05:41:04;-5.40;99.90
52899;DHT22;38763;53.096;6.062;2022-12-18T05:43:33;-5.40;99.90
52899;DHT22;38763;53.096;6.062;2022-12-18T05:46:06;-5.40;99.90
52899;DHT22;38763;53.096;6.062;2022-12-18T05:48:32;-5.40;99.90
52899;DHT22;38763;53.096;6.062;2022-12-18T05:51:05;-5.40;99.90
52899;DHT22;38763;53.096;6.062;2022-12-18T05:53:31;-5.40;99.90
52899;DHT22;38763;53.096;6.062;2022-12-18T05:56:00;-5.40;99.90
52899;DHT22;38763;53.096;6.062;2022-12-18T05:58:26;-5.50;99.90
52899;DHT22;38763;53.096;6.062;2022-12-18T06:00:52;-5.50;99.90
52899;DHT22;38763;53.096;6.062;2022-12-18T06:03:18;-5.50;99.90
52899;DHT22;38763;53.096;6.062;2022-12-18T06:05:44;-5.40;99.90
52899;DHT22;38763;53.096;6.062;2022-12-18T06:08:11;-5.50;99.90
52899;DHT22;38763;53.096;6.062;2022-12-18T06:10:37;-5.50;99.90
52899;DHT22;38763;53.096;6.062;2022-12-18T06:13:02;-5.50;99.90
52899;DHT22;38763;53.096;6.062;2022-12-18T06:15:28;-5.50;99.90
52899;DHT22;38763;53.096;6.062;2022-12-18T06:17:54;-5.60;99.90
52899;DHT22;38763;53.096;6.062;2022-12-18T06:20:20;-5.50;99.90
52899;DHT22;38763;53.096;6.062;2022-12-18T06:22:45;-5.50;99.90
52899;DHT22;38763;53.096;6.062;2022-12-18T06:25:11;-5.50;99.90
52899;DHT22;38763;53.096;6.062;2022-12-18T06:27:37;-5.50;99.90
52899;DHT22;38763;53.096;6.062;2022-12-18T06:30:03;-5.50;99.90
52899;DHT22;38763;53.096;6.062;2022-12-18T06:32:29;-5.60;99.90
52899;DHT22;38763;53.096;6.062;2022-12-18T06:34:54;-5.60;99.90
52899;DHT22;38763;53.096;6.062;2022-12-18T06:37:21;-5.60;99.90
52899;DHT22;38763;53.096;6.062;2022-12-18T06:39:49;-5.60;99.90
52899;DHT22;38763;53.096;6.062;2022-12-18T06:42:15;-5.60;99.90
52899;DHT22;38763;53.096;6.062;2022-12-18T06:44:40;-5.60;99.90
52899;DHT22;38763;53.096;6.062;2022-12-18T06:47:06;-5.70;99.90
52899;DHT22;38763;53.096;6.062;2022-12-18T06:49:31;-5.70;99.90
52899;DHT22;38763;53.096;6.062;2022-12-18T06:51:57;-5.70;99.90
52899;DHT22;38763;53.096;6.062;2022-12-18T06:54:22;-5.70;99.90
52899;DHT22;38763;53.096;6.062;2022-12-18T06:56:48;-5.70;99.90
52899;DHT22;38763;53.096;6.062;2022-12-18T06:59:14;-5.80;99.90
52899;DHT22;38763;53.096;6.062;2022-12-18T07:01:40;-5.80;99.90
52899;DHT22;38763;53.096;6.062;2022-12-18T07:04:06;-5.80;99.90
52899;DHT22;38763;53.096;6.062;2022-12-18T07:06:32;-5.80;99.90
52899;DHT22;38763;53.096;6.062;2022-12-18T07:08:57;-5.80;99.90
52899;DHT22;38763;53.096;6.062;2022-12-18T07:11:23;-5.80;99.90
52899;DHT22;38763;53.096;6.062;2022-12-18T07:13:49;-5.80;99.90
52899;DHT22;38763;53.096;6.062;2022-12-18T07:16:18;-5.90;99.90
52899;DHT22;38763;53.096;6.062;2022-12-18T07:18:44;-5.80;99.90
52899;DHT22;38763;53.096;6.062;2022-12-18T07:21:12;-5.80;99.90
52899;DHT22;38763;53.096;6.062;2022-12-18T07:23:38;-5.80;99.90
52899;DHT22;38763;53.096;6.062;2022-12-18T07:26:10;-5.80;99.90
52899;DHT22;38763;53.096;6.062;2022-12-18T07:28:37;-5.80;99.90
52899;DHT22;38763;53.096;6.062;2022-12-18T07:31:04;-5.80;99.90
52899;DHT22;38763;53.096;6.062;2022-12-18T07:33:33;-5.80;99.90
52899;DHT22;38763;53.096;6.062;2022-12-18T07:36:00;-5.80;99.90
52899;DHT22;38763;53.096;6.062;2022-12-18T07:38:25;-5.70;99.90
52899;DHT22;38763;53.096;6.062;2022-12-18T07:40:51;-5.70;99.90
52899;DHT22;38763;53.096;6.062;2022-12-18T07:43:17;-5.70;99.90
52899;DHT22;38763;53.096;6.062;2022-12-18T07:45:43;-5.70;99.90
52899;DHT22;38763;53.096;6.062;2022-12-18T07:48:09;-5.60;99.90
52899;DHT22;38763;53.096;6.062;2022-12-18T07:50:35;-5.60;99.90
52899;DHT22;38763;53.096;6.062;2022-12-18T07:53:01;-5.50;99.90
52899;DHT22;38763;53.096;6.062;2022-12-18T07:55:31;-5.50;99.90
52899;DHT22;38763;53.096;6.062;2022-12-18T07:57:56;-5.50;99.90
52899;DHT22;38763;53.096;6.062;2022-12-18T08:00:22;-5.40;99.90
52899;DHT22;38763;53.096;6.062;2022-12-18T08:02:48;-5.40;99.90
52899;DHT22;38763;53.096;6.062;2022-12-18T08:05:13;-5.40;99.90
52899;DHT22;38763;53.096;6.062;2022-12-18T08:07:39;-5.30;99.90
52899;DHT22;38763;53.096;6.062;2022-12-18T08:10:06;-5.30;99.90
52899;DHT22;38763;53.096;6.062;2022-12-18T08:12:32;-5.20;99.90
52899;DHT22;38763;53.096;6.062;2022-12-18T08:14:57;-5.10;99.90
52899;DHT22;38763;53.096;6.062;2022-12-18T08:17:23;-5.10;99.90
52899;DHT22;38763;53.096;6.062;2022-12-18T08:19:48;-5.10;99.90
52899;DHT22;38763;53.096;6.062;2022-12-18T08:22:14;-5.10;99.90
52899;DHT22;38763;53.096;6.062;2022-12-18T08:24:39;-5.00;99.90
52899;DHT22;38763;53.096;6.062;2022-12-18T08:27:05;-5.00;99.90
52899;DHT22;38763;53.096;6.062;2022-12-18T08:29:31;-4.90;99.90
52899;DHT22;38763;53.096;6.062;2022-12-18T08:31:57;-4.90;99.90
52899;DHT22;38763;53.096;6.062;2022-12-18T08:34:22;-4.90;99.90
52899;DHT22;38763;53.096;6.062;2022-12-18T08:36:48;-4.80;99.90
52899;DHT22;38763;53.096;6.062;2022-12-18T08:39:14;-4.80;99.90
52899;DHT22;38763;53.096;6.062;2022-12-18T08:41:39;-4.80;99.90
52899;DHT22;38763;53.096;6.062;2022-12-18T08:44:06;-4.80;99.90
52899;DHT22;38763;53.096;6.062;2022-12-18T08:46:55;-4.70;99.90
52899;DHT22;38763;53.096;6.062;2022-12-18T08:49:20;-4.70;99.90
52899;DHT22;38763;53.096;6.062;2022-12-18T08:51:46;-4.60;99.90
52899;DHT22;38763;53.096;6.062;2022-12-18T08:54:12;-4.60;99.90
52899;DHT22;38763;53.096;6.062;2022-12-18T08:56:39;-4.60;99.90
52899;DHT22;38763;53.096;6.062;2022-12-18T08:59:04;-4.50;99.90
52899;DHT22;38763;53.096;6.062;2022-12-18T09:01:30;-4.50;99.90
52899;DHT22;38763;53.096;6.062;2022-12-18T09:03:56;-4.30;99.90
52899;DHT22;38763;53.096;6.062;2022-12-18T09:06:22;-4.30;99.90
52899;DHT22;38763;53.096;6.062;2022-12-18T09:08:48;-4.20;99.90
52899;DHT22;38763;53.096;6.062;2022-12-18T09:11:25;-4.20;99.90
52899;DHT22;38763;53.096;6.062;2022-12-18T09:13:52;-4.10;99.90
52899;DHT22;38763;53.096;6.062;2022-12-18T09:16:18;-4.10;99.90
52899;DHT22;38763;53.096;6.062;2022-12-18T09:18:45;-4.00;99.90
52899;DHT22;38763;53.096;6.062;2022-12-18T09:21:13;-4.00;99.90
52899;DHT22;38763;53.096;6.062;2022-12-18T09:23:39;-3.90;99.90
52899;DHT22;38763;53.096;6.062;2022-12-18T09:26:05;-3.80;99.90
52899;DHT22;38763;53.096;6.062;2022-12-18T09:28:31;-3.70;99.90
52899;DHT22;38763;53.096;6.062;2022-12-18T09:30:57;-3.70;99.90
52899;DHT22;38763;53.096;6.062;2022-12-18T09:33:22;-3.60;99.90
52899;DHT22;38763;53.096;6.062;2022-12-18T09:35:48;-3.50;99.90
52899;DHT22;38763;53.096;6.062;2022-12-18T09:38:18;-3.50;99.90
52899;DHT22;38763;53.096;6.062;2022-12-18T09:40:47;-3.50;99.90
52899;DHT22;38763;53.096;6.062;2022-12-18T09:43:18;-3.40;99.90
52899;DHT22;38763;53.096;6.062;2022-12-18T09:45:47;-3.40;99.90
52899;DHT22;38763;53.096;6.062;2022-12-18T09:48:25;-3.40;99.90
52899;DHT22;38763;53.096;6.062;2022-12-18T09:50:55;-3.40;99.90
52899;DHT22;38763;53.096;6.062;2022-12-18T09:53:30;-3.40;99.90
52899;DHT22;38763;53.096;6.062;2022-12-18T09:55:58;-3.40;99.90
52899;DHT22;38763;53.096;6.062;2022-12-18T09:58:39;-3.40;99.90
52899;DHT22;38763;53.096;6.062;2022-12-18T10:01:15;-3.40;99.90
52899;DHT22;38763;53.096;6.062;2022-12-18T10:03:44;-3.30;99.90
52899;DHT22;38763;53.096;6.062;2022-12-18T10:14:38;-3.40;99.90
52899;DHT22;38763;53.096;6.062;2022-12-18T10:18:01;-3.40;99.90
52899;DHT22;38763;53.096;6.062;2022-12-18T10:22:55;-3.30;99.90
52899;DHT22;38763;53.096;6.062;2022-12-18T10:28:10;-3.20;99.90
52899;DHT22;38763;53.096;6.062;2022-12-18T10:30:39;-3.10;99.90
52899;DHT22;38763;53.096;6.062;2022-12-18T10:33:05;-3.10;99.90
52899;DHT22;38763;53.096;6.062;2022-12-18T10:35:31;-3.10;99.90
52899;DHT22;38763;53.096;6.062;2022-12-18T10:40:58;-3.10;99.90
52899;DHT22;38763;53.096;6.062;2022-12-18T10:51:27;-3.00;99.90
52899;DHT22;38763;53.096;6.062;2022-12-18T10:53:57;-3.00;99.90
52899;DHT22;38763;53.096;6.062;2022-12-18T10:56:24;-3.00;99.90
52899;DHT22;38763;53.096;6.062;2022-12-18T10:59:06;-2.90;99.90
52899;DHT22;38763;53.096;6.062;2022-12-18T11:01:57;-2.90;99.90
52899;DHT22;38763;53.096;6.062;2022-12-18T11:04:25;-2.90;99.90
52899;DHT22;38763;53.096;6.062;2022-12-18T11:07:04;-2.90;99.90
52899;DHT22;38763;53.096;6.062;2022-12-18T11:09:35;-2.80;99.90
52899;DHT22;38763;53.096;6.062;2022-12-18T11:20:03;-2.70;99.90
52899;DHT22;38763;53.096;6.062;2022-12-18T11:22:30;-2.70;99.90
52899;DHT22;38763;53.096;6.062;2022-12-18T11:25:07;-2.70;99.90
52899;DHT22;38763;53.096;6.062;2022-12-18T11:27:57;-2.60;99.90
52899;DHT22;38763;53.096;6.062;2022-12-18T11:33:18;-2.60;99.90
52899;DHT22;38763;53.096;6.062;2022-12-18T11:35:49;-2.60;99.90
52899;DHT22;38763;53.096;6.062;2022-12-18T11:38:21;-2.60;99.90
52899;DHT22;38763;53.096;6.062;2022-12-18T11:41:05;-2.60;99.90
52899;DHT22;38763;53.096;6.062;2022-12-18T11:43:39;-2.50;99.90
52899;DHT22;38763;53.096;6.062;2022-12-18T11:46:15;-2.50;99.90
52899;DHT22;38763;53.096;6.062;2022-12-18T11:48:52;-2.50;99.90
52899;DHT22;38763;53.096;6.062;2022-12-18T11:51:35;-2.50;99.90
52899;DHT22;38763;53.096;6.062;2022-12-18T11:54:13;-2.50;99.90
52899;DHT22;38763;53.096;6.062;2022-12-18T11:56:48;-2.40;99.90
52899;DHT22;38763;53.096;6.062;2022-12-18T11:59:24;-2.40;99.90
52899;DHT22;38763;53.096;6.062;2022-12-18T12:02:20;-2.40;99.90
52899;DHT22;38763;53.096;6.062;2022-12-18T12:08:10;-2.40;99.90
52899;DHT22;38763;53.096;6.062;2022-12-18T12:10:45;-2.30;99.90
52899;DHT22;38763;53.096;6.062;2022-12-18T12:16:24;-2.30;99.90
52899;DHT22;38763;53.096;6.062;2022-12-18T12:30:58;-2.10;99.90
52899;DHT22;38763;53.096;6.062;2022-12-18T12:38:53;-2.00;99.90
52899;DHT22;38763;53.096;6.062;2022-12-18T12:41:24;-2.00;99.90
52899;DHT22;38763;53.096;6.062;2022-12-18T12:44:15;-1.90;99.90
52899;DHT22;38763;53.096;6.062;2022-12-18T12:46:43;-1.90;99.90
52899;DHT22;38763;53.096;6.062;2022-12-18T12:49:15;-1.90;99.90
52899;DHT22;38763;53.096;6.062;2022-12-18T12:51:45;-1.90;99.90
52899;DHT22;38763;53.096;6.062;2022-12-18T12:54:21;-1.80;99.90
52899;DHT22;38763;53.096;6.062;2022-12-18T12:57:03;-1.80;99.90
52899;DHT22;38763;53.096;6.062;2022-12-18T13:04:56;-1.80;99.90
52899;DHT22;38763;53.096;6.062;2022-12-18T13:07:57;-1.70;99.90
52899;DHT22;38763;53.096;6.062;2022-12-18T13:10:30;-1.70;99.90
52899;DHT22;38763;53.096;6.062;2022-12-18T13:15:43;-1.70;99.90
52899;DHT22;38763;53.096;6.062;2022-12-18T13:36:34;-1.60;99.90
52899;DHT22;38763;53.096;6.062;2022-12-18T13:41:48;-1.60;99.90
52899;DHT22;38763;53.096;6.062;2022-12-18T13:44:33;-1.60;99.90
52899;DHT22;38763;53.096;6.062;2022-12-18T13:47:02;-1.50;99.90
52899;DHT22;38763;53.096;6.062;2022-12-18T13:49:41;-1.50;99.90
52899;DHT22;38763;53.096;6.062;2022-12-18T13:52:18;-1.50;99.90
52899;DHT22;38763;53.096;6.062;2022-12-18T13:54:49;-1.50;99.90
52899;DHT22;38763;53.096;6.062;2022-12-18T13:57:36;-1.50;99.90
52899;DHT22;38763;53.096;6.062;2022-12-18T14:00:26;-1.50;99.90
52899;DHT22;38763;53.096;6.062;2022-12-18T14:02:53;-1.50;99.90
52899;DHT22;38763;53.096;6.062;2022-12-18T14:05:30;-1.50;99.90
52899;DHT22;38763;53.096;6.062;2022-12-18T14:08:08;-1.50;99.90
52899;DHT22;38763;53.096;6.062;2022-12-18T14:10:35;-1.60;99.90
52899;DHT22;38763;53.096;6.062;2022-12-18T14:13:06;-1.60;99.90
52899;DHT22;38763;53.096;6.062;2022-12-18T14:15:41;-1.60;99.90
52899;DHT22;38763;53.096;6.062;2022-12-18T14:18:29;-1.50;99.90
52899;DHT22;38763;53.096;6.062;2022-12-18T14:20:59;-1.60;99.90
52899;DHT22;38763;53.096;6.062;2022-12-18T14:23:37;-1.60;99.90
52899;DHT22;38763;53.096;6.062;2022-12-18T14:28:50;-1.50;99.90
52899;DHT22;38763;53.096;6.062;2022-12-18T14:31:20;-1.50;99.90
52899;DHT22;38763;53.096;6.062;2022-12-18T14:33:46;-1.60;99.90
52899;DHT22;38763;53.096;6.062;2022-12-18T14:36:16;-1.50;99.90
52899;DHT22;38763;53.096;6.062;2022-12-18T14:38:42;-1.60;99.90
52899;DHT22;38763;53.096;6.062;2022-12-18T14:41:15;-1.60;99.90
52899;DHT22;38763;53.096;6.062;2022-12-18T14:43:43;-1.60;99.90
52899;DHT22;38763;53.096;6.062;2022-12-18T14:46:38;-1.60;99.90
52899;DHT22;38763;53.096;6.062;2022-12-18T14:49:27;-1.60;99.90
52899;DHT22;38763;53.096;6.062;2022-12-18T14:51:59;-1.60;99.90
52899;DHT22;38763;53.096;6.062;2022-12-18T14:54:27;-1.60;99.90
52899;DHT22;38763;53.096;6.062;2022-12-18T14:57:17;-1.60;99.90
52899;DHT22;38763;53.096;6.062;2022-12-18T14:59:46;-1.60;99.90
52899;DHT22;38763;53.096;6.062;2022-12-18T15:02:23;-1.60;99.90
52899;DHT22;38763;53.096;6.062;2022-12-18T15:05:14;-1.60;99.90
52899;DHT22;38763;53.096;6.062;2022-12-18T15:07:43;-1.60;99.90
52899;DHT22;38763;53.096;6.062;2022-12-18T15:21:00;-1.70;99.90
52899;DHT22;38763;53.096;6.062;2022-12-18T15:23:35;-1.60;99.90
52899;DHT22;38763;53.096;6.062;2022-12-18T15:26:04;-1.60;99.90
52899;DHT22;38763;53.096;6.062;2022-12-18T15:28:54;-1.60;99.90
52899;DHT22;38763;53.096;6.062;2022-12-18T15:31:32;-1.60;99.90
52899;DHT22;38763;53.096;6.062;2022-12-18T15:34:10;-1.60;99.90
52899;DHT22;38763;53.096;6.062;2022-12-18T15:36:37;-1.60;99.90
52899;DHT22;38763;53.096;6.062;2022-12-18T15:39:04;-1.60;99.90
52899;DHT22;38763;53.096;6.062;2022-12-18T15:41:34;-1.60;99.90
52899;DHT22;38763;53.096;6.062;2022-12-18T15:44:00;-1.60;99.90
52899;DHT22;38763;53.096;6.062;2022-12-18T15:46:26;-1.60;99.90
52899;DHT22;38763;53.096;6.062;2022-12-18T15:48:56;-1.60;99.90
52899;DHT22;38763;53.096;6.062;2022-12-18T15:51:35;-1.60;99.90
52899;DHT22;38763;53.096;6.062;2022-12-18T15:54:04;-1.50;99.90
52899;DHT22;38763;53.096;6.062;2022-12-18T15:56:31;-1.60;99.90
52899;DHT22;38763;53.096;6.062;2022-12-18T15:59:19;-1.50;99.90
52899;DHT22;38763;53.096;6.062;2022-12-18T16:01:48;-1.50;99.90
52899;DHT22;38763;53.096;6.062;2022-12-18T16:04:15;-1.60;99.90
52899;DHT22;38763;53.096;6.062;2022-12-18T16:06:42;-1.50;99.90
52899;DHT22;38763;53.096;6.062;2022-12-18T16:09:08;-1.60;99.90
52899;DHT22;38763;53.096;6.062;2022-12-18T16:11:36;-1.60;99.90
52899;DHT22;38763;53.096;6.062;2022-12-18T16:14:28;-1.60;99.90
52899;DHT22;38763;53.096;6.062;2022-12-18T16:16:56;-1.60;99.90
52899;DHT22;38763;53.096;6.062;2022-12-18T16:19:22;-1.60;99.90
52899;DHT22;38763;53.096;6.062;2022-12-18T16:21:49;-1.60;99.90
52899;DHT22;38763;53.096;6.062;2022-12-18T16:24:17;-1.60;99.90
52899;DHT22;38763;53.096;6.062;2022-12-18T16:26:44;-1.60;99.90
52899;DHT22;38763;53.096;6.062;2022-12-18T16:29:10;-1.50;99.90
52899;DHT22;38763;53.096;6.062;2022-12-18T16:31:37;-1.60;99.90
52899;DHT22;38763;53.096;6.062;2022-12-18T16:34:27;-1.50;99.90
52899;DHT22;38763;53.096;6.062;2022-12-18T16:37:01;-1.60;99.90
52899;DHT22;38763;53.096;6.062;2022-12-18T16:39:28;-1.50;99.90
52899;DHT22;38763;53.096;6.062;2022-12-18T16:41:55;-1.50;99.90
52899;DHT22;38763;53.096;6.062;2022-12-18T16:44:21;-1.50;99.90
52899;DHT22;38763;53.096;6.062;2022-12-18T16:46:47;-1.40;99.90
52899;DHT22;38763;53.096;6.062;2022-12-18T16:49:17;-1.40;99.90
52899;DHT22;38763;53.096;6.062;2022-12-18T16:51:43;-1.40;99.90
52899;DHT22;38763;53.096;6.062;2022-12-18T16:54:10;-1.40;99.90
52899;DHT22;38763;53.096;6.062;2022-12-18T16:56:36;-1.30;99.90
52899;DHT22;38763;53.096;6.062;2022-12-18T16:59:02;-1.40;99.90
52899;DHT22;38763;53.096;6.062;2022-12-18T17:01:30;-1.30;99.90
52899;DHT22;38763;53.096;6.062;2022-12-18T17:04:01;-1.30;99.90
52899;DHT22;38763;53.096;6.062;2022-12-18T17:06:30;-1.30;99.90
52899;DHT22;38763;53.096;6.062;2022-12-18T17:09:00;-1.30;99.90
52899;DHT22;38763;53.096;6.062;2022-12-18T17:11:28;-1.30;99.90
52899;DHT22;38763;53.096;6.062;2022-12-18T17:13:54;-1.30;99.90
52899;DHT22;38763;53.096;6.062;2022-12-18T17:16:20;-1.30;99.90
52899;DHT22;38763;53.096;6.062;2022-12-18T17:18:46;-1.30;99.90
52899;DHT22;38763;53.096;6.062;2022-12-18T17:21:13;-1.30;99.90
52899;DHT22;38763;53.096;6.062;2022-12-18T17:23:40;-1.30;99.90
52899;DHT22;38763;53.096;6.062;2022-12-18T17:26:06;-1.30;99.90
52899;DHT22;38763;53.096;6.062;2022-12-18T17:28:33;-1.30;99.90
52899;DHT22;38763;53.096;6.062;2022-12-18T17:30:59;-1.30;99.90
52899;DHT22;38763;53.096;6.062;2022-12-18T17:33:25;-1.30;99.90
52899;DHT22;38763;53.096;6.062;2022-12-18T17:35:51;-1.30;99.90
52899;DHT22;38763;53.096;6.062;2022-12-18T17:38:17;-1.20;99.90
52899;DHT22;38763;53.096;6.062;2022-12-18T17:40:42;-1.20;99.90
52899;DHT22;38763;53.096;6.062;2022-12-18T17:43:09;-1.20;99.90
52899;DHT22;38763;53.096;6.062;2022-12-18T17:45:36;-1.20;99.90
52899;DHT22;38763;53.096;6.062;2022-12-18T17:48:06;-1.20;99.90
52899;DHT22;38763;53.096;6.062;2022-12-18T17:50:34;-1.10;99.90
52899;DHT22;38763;53.096;6.062;2022-12-18T17:53:00;-1.10;99.90